Time;durP1;ratioP1;P1;durP2;ratioP2;P2;SDS_P1;SDS_P2;PMS_P1;PMS_P2;Temp;Humidity;BMP_temperature;BMP_pressure;BME280_temperature;BME280_humidity;BME280_pressure;Samples;Min_cycle;Max_cycle;Signal;HPM_P1;HPM_P2
2022/03/06 00:00:02;;;;;;;10.25;5.55;;;;;;;1.04;56.98;100672.56;5114517;28;20035;-73
2022/03/06 00:02:34;;;;;;;12.20;5.90;;;;;;;1.00;56.94;100672.66;5114188;28;20044;-73
2022/03/06 00:05:02;;;;;;;13.00;5.72;;;;;;;0.90;57.71;100673.69;5114082;28;20082;-73
2022/03/06 00:07:31;;;;;;;12.80;5.65;;;;;;;1.05;57.43;100676.06;5114070;28;20040;-73
2022/03/06 00:09:59;;;;;;;12.55;6.18;;;;;;;0.92;57.44;100677.13;5096305;28;20055;-73
2022/03/06 00:12:27;;;;;;;14.13;6.22;;;;;;;0.88;57.55;100678.97;5113992;28;20092;-74
2022/03/06 00:14:56;;;;;;;11.50;5.60;;;;;;;0.83;57.59;100678.13;5096241;28;20545;-73
2022/03/06 00:17:24;;;;;;;11.82;6.05;;;;;;;0.81;58.12;100680.78;5096208;28;20060;-73
2022/03/06 00:19:54;;;;;;;11.65;6.05;;;;;;;0.84;58.10;100686.00;5114020;28;20051;-74
2022/03/06 00:22:22;;;;;;;10.27;5.47;;;;;;;0.77;57.85;100678.22;5114154;28;20055;-78
2022/03/06 00:24:50;;;;;;;10.98;5.38;;;;;;;0.71;57.99;100678.31;5113528;28;20048;-78
2022/03/06 00:27:19;;;;;;;11.55;5.57;;;;;;;0.62;58.71;100689.78;5113929;28;20051;-79
2022/03/06 00:29:47;;;;;;;10.95;5.85;;;;;;;0.81;58.64;100680.78;5113363;28;20040;-79
2022/03/06 00:32:15;;;;;;;13.85;6.25;;;;;;;0.75;58.76;100682.63;5113967;28;20067;-78
2022/03/06 00:34:44;;;;;;;11.52;6.40;;;;;;;0.64;59.43;100682.75;5113637;28;20036;-79
2022/03/06 00:37:14;;;;;;;11.73;6.30;;;;;;;0.51;59.60;100671.56;5113630;28;20069;-76
2022/03/06 00:39:43;;;;;;;11.95;6.20;;;;;;;0.46;59.62;100677.72;5113084;28;20558;-76
2022/03/06 00:42:12;;;;;;;10.95;6.43;;;;;;;0.47;59.86;100685.59;5113486;28;20078;-76
2022/03/06 00:44:40;;;;;;;12.13;6.47;;;;;;;0.43;59.97;100681.28;5113209;28;20405;-75
2022/03/06 00:47:08;;;;;;;13.15;6.47;;;;;;;0.38;60.54;100679.56;5113429;28;20104;-75
2022/03/06 00:49:38;;;;;;;13.23;6.72;;;;;;;0.50;59.85;100677.69;5112902;28;20397;-75
2022/03/06 00:52:06;;;;;;;12.02;6.22;;;;;;;0.42;60.17;100682.16;5113505;28;20075;-75
2022/03/06 00:54:36;;;;;;;11.60;6.00;;;;;;;0.37;60.63;100678.72;5112934;28;20035;-75
2022/03/06 00:57:04;;;;;;;13.25;6.72;;;;;;;0.31;60.42;100691.06;5113209;28;20101;-76
2022/03/06 00:59:35;;;;;;;12.50;6.40;;;;;;;0.26;60.99;100684.09;5113270;28;20035;-76
2022/03/06 01:02:05;;;;;;;12.25;6.38;;;;;;;0.37;60.34;100683.97;5113342;28;20097;-76
2022/03/06 01:04:34;;;;;;;13.32;6.28;;;;;;;0.35;60.75;100677.88;5113287;28;20377;-77
2022/03/06 01:07:03;;;;;;;12.65;6.20;;;;;;;0.39;60.57;100676.97;5113502;28;20051;-73
2022/03/06 01:09:31;;;;;;;11.70;6.13;;;;;;;0.43;60.36;100678.66;5113190;28;20051;-75
2022/03/06 01:12:01;;;;;;;11.25;6.00;;;;;;;0.36;60.39;100676.97;5113838;28;20047;-73
2022/03/06 01:14:29;;;;;;;11.52;6.13;;;;;;;0.16;61.65;100674.59;5113627;28;20071;-75
2022/03/06 01:16:57;;;;;;;13.60;6.57;;;;;;;0.26;60.99;100676.22;5113600;28;20473;-73
2022/03/06 01:19:25;;;;;;;11.68;6.30;;;;;;;0.22;61.24;100674.53;5113171;28;20047;-72
2022/03/06 01:21:54;;;;;;;12.60;6.57;;;;;;;0.20;60.83;100664.94;5113308;28;20048;-74
2022/03/06 01:24:22;;;;;;;12.48;6.15;;;;;;;0.19;60.73;100663.19;5113263;28;20048;-76
2022/03/06 01:26:50;;;;;;;11.30;6.55;;;;;;;0.20;61.09;100655.31;5113002;28;20048;-76
2022/03/06 01:29:22;;;;;;;12.73;6.65;;;;;;;0.16;61.25;100655.34;5113375;28;20047;-77
2022/03/06 01:31:52;;;;;;;11.57;6.63;;;;;;;0.14;61.38;100651.88;5113064;28;20047;-76
2022/03/06 01:34:20;;;;;;;11.35;6.38;;;;;;;-0.05;62.03;100654.69;5113235;28;20043;-76
2022/03/06 01:36:49;;;;;;;11.73;6.35;;;;;;;-0.03;62.18;100652.06;5113476;28;20035;-77
2022/03/06 01:39:19;;;;;;;10.65;6.30;;;;;;;-0.09;62.46;100646.91;5117220;28;20040;-74
2022/03/06 01:41:48;;;;;;;11.25;6.15;;;;;;;-0.09;62.51;100642.53;5116881;28;20043;-75
2022/03/06 01:44:16;;;;;;;12.52;6.68;;;;;;;-0.12;62.67;100642.53;5117183;28;20070;-73
2022/03/06 01:46:49;;;;;;;11.45;6.60;;;;;;;-0.12;62.09;100625.94;5116922;28;20035;-73
2022/03/06 01:49:18;;;;;;;13.43;6.35;;;;;;;-0.14;62.83;100640.81;5116944;28;20481;-73
2022/03/06 01:51:46;;;;;;;12.82;6.63;;;;;;;-0.16;62.94;100635.59;5116376;28;20127;-74
2022/03/06 01:54:14;;;;;;;13.05;6.93;;;;;;;-0.21;63.11;100634.75;5116716;28;20122;-74
2022/03/06 01:56:43;;;;;;;14.02;6.47;;;;;;;-0.32;63.52;100623.50;5116607;28;20062;-76
2022/03/06 01:59:12;;;;;;;13.57;6.55;;;;;;;-0.38;64.14;100629.72;5116869;28;20039;-75
2022/03/06 02:01:40;;;;;;;14.35;6.78;;;;;;;-0.52;64.39;100622.84;5116420;28;20044;-75
2022/03/06 02:04:10;;;;;;;12.50;6.43;;;;;;;-0.45;64.31;100616.66;5116845;28;20043;-75
2022/03/06 02:06:39;;;;;;;12.57;7.13;;;;;;;-0.45;64.34;100620.16;5116565;28;20122;-73
2022/03/06 02:09:07;;;;;;;11.40;6.70;;;;;;;-0.46;64.36;100610.56;5116494;28;20126;-72
2022/03/06 02:11:35;;;;;;;13.38;6.68;;;;;;;-0.55;64.81;100610.63;5116422;28;20071;-74
2022/03/06 02:14:04;;;;;;;11.68;5.97;;;;;;;-0.60;64.89;100608.03;5116593;28;20438;-74
2022/03/06 02:16:33;;;;;;;12.73;6.65;;;;;;;-0.67;65.81;100611.63;5116547;28;20476;-75
2022/03/06 02:19:01;;;;;;;10.75;6.18;;;;;;;-0.59;65.24;100616.78;5116563;28;20071;-75
2022/03/06 02:21:31;;;;;;;11.75;6.45;;;;;;;-0.63;65.38;100623.81;5115962;28;20139;-77
2022/03/06 02:23:59;;;;;;;13.23;6.88;;;;;;;-0.80;66.02;100612.59;5116162;28;20048;-78
2022/03/06 02:26:28;;;;;;;14.05;7.22;;;;;;;-0.70;66.18;100616.88;5116360;28;20473;-77
2022/03/06 02:28:56;;;;;;;13.90;6.78;;;;;;;-0.63;66.17;100613.31;5115712;28;20070;-77
2022/03/06 02:31:24;;;;;;;14.15;7.00;;;;;;;-0.68;65.99;100615.09;5116273;28;20050;-77
2022/03/06 02:33:53;;;;;;;13.20;6.55;;;;;;;-0.73;66.36;100614.28;5115898;28;20039;-78
2022/03/06 02:36:21;;;;;;;12.98;6.63;;;;;;;-0.70;66.47;100616.88;5116256;28;20069;-77
2022/03/06 02:38:51;;;;;;;10.85;6.57;;;;;;;-0.76;66.65;100616.94;5115809;28;20438;-77
2022/03/06 02:41:20;;;;;;;12.85;6.78;;;;;;;-0.70;66.42;100616.00;5116160;28;20039;-77
2022/03/06 02:43:48;;;;;;;13.25;7.22;;;;;;;-0.67;66.25;100619.50;5115786;28;20040;-77
2022/03/06 02:46:16;;;;;;;12.93;6.78;;;;;;;-0.69;66.03;100617.75;5115644;28;20101;-76
2022/03/06 02:48:44;;;;;;;13.60;6.70;;;;;;;-0.69;65.86;100618.59;5115386;28;20047;-77
2022/03/06 02:51:13;;;;;;;11.52;6.78;;;;;;;-0.80;66.25;100625.69;5115570;28;20571;-76
2022/03/06 02:53:41;;;;;;;13.63;6.90;;;;;;;-0.78;66.20;100618.69;5115359;28;20118;-76
2022/03/06 02:56:11;;;;;;;13.43;6.60;;;;;;;-0.69;65.80;100622.97;5115707;28;20044;-77
2022/03/06 02:58:39;;;;;;;13.90;6.32;;;;;;;-0.66;65.67;100613.38;5115447;28;20044;-73
2022/03/06 03:01:09;;;;;;;14.48;7.07;;;;;;;-0.85;66.41;100622.25;5115774;28;20096;-72
2022/03/06 03:03:44;;;;;;;13.18;6.47;;;;;;;-0.69;65.61;100615.97;5115381;28;20039;-69
2022/03/06 03:06:12;;;;;;;12.85;6.90;;;;;;;-0.80;66.19;100616.97;5115376;28;20043;-70
2022/03/06 03:08:45;;;;;;;12.93;7.05;;;;;;;-0.85;66.24;100624.00;5115310;28;20043;-76
2022/03/06 03:11:15;;;;;;;13.07;7.00;;;;;;;-0.99;66.37;100616.22;5115625;28;20035;-78
2022/03/06 03:13:43;;;;;;;12.25;7.00;;;;;;;-1.00;66.76;100614.50;5114772;28;20044;-78
2022/03/06 03:16:11;;;;;;;12.50;7.00;;;;;;;-1.00;66.77;100620.59;5115463;28;20050;-77
2022/03/06 03:18:39;;;;;;;12.57;6.82;;;;;;;-0.91;66.66;100612.69;5114974;28;20048;-78
2022/03/06 03:21:07;;;;;;;14.40;7.75;;;;;;;-1.00;66.94;100615.38;5115308;28;20142;-77
2022/03/06 03:23:36;;;;;;;13.68;7.32;;;;;;;-0.90;66.60;100616.16;5114937;28;20039;-77
2022/03/06 03:26:04;;;;;;;16.92;7.50;;;;;;;-1.07;67.69;100618.03;5115197;28;20043;-77
2022/03/06 03:28:34;;;;;;;16.75;7.63;;;;;;;-1.07;67.82;100620.66;5114844;28;20047;-75
2022/03/06 03:31:02;;;;;;;16.00;7.43;;;;;;;-1.13;67.82;100620.72;5114720;28;20046;-75
2022/03/06 03:33:30;;;;;;;12.60;7.40;;;;;;;-1.07;67.84;100631.13;5114962;28;20039;-70
2022/03/06 03:35:58;;;;;;;14.13;7.60;;;;;;;-1.16;68.08;100626.81;5114349;28;20159;-72
2022/03/06 03:38:26;;;;;;;14.05;7.30;;;;;;;-1.10;67.52;100625.91;5114966;28;20568;-71
2022/03/06 03:40:55;;;;;;;15.43;7.57;;;;;;;-1.16;67.94;100632.03;5114551;28;20130;-71
2022/03/06 03:43:23;;;;;;;15.07;7.60;;;;;;;-1.25;68.51;100635.63;5114805;28;20050;-75
2022/03/06 03:45:53;;;;;;;13.18;7.13;;;;;;;-1.18;68.15;100632.06;5114409;28;20047;-76
2022/03/06 03:48:21;;;;;;;12.85;7.28;;;;;;;-1.22;68.21;100621.63;5114571;28;20089;-73
2022/03/06 03:50:49;;;;;;;15.10;7.97;;;;;;;-1.23;68.65;100628.63;5114344;28;20043;-74
2022/03/06 03:53:18;;;;;;;12.80;7.05;;;;;;;-1.16;68.45;100640.81;5114541;28;20070;-74
2022/03/06 03:55:46;;;;;;;14.77;7.20;;;;;;;-1.23;68.59;100639.09;5114231;28;20039;-75
2022/03/06 03:58:14;;;;;;;16.40;7.60;;;;;;;-1.32;69.53;100638.28;5114173;28;20552;-75
2022/03/06 04:00:43;;;;;;;16.27;8.90;;;;;;;-1.40;70.09;100643.53;5113632;28;20495;-76
2022/03/06 04:03:14;;;;;;;16.35;8.32;;;;;;;-1.30;69.63;100647.84;5114464;28;20108;-75
2022/03/06 04:05:42;;;;;;;14.40;7.90;;;;;;;-1.15;69.40;100646.91;5114085;28;20404;-76
2022/03/06 04:08:10;;;;;;;13.70;7.63;;;;;;;-1.21;69.65;100653.03;5096017;28;20047;-74
2022/03/06 04:10:38;;;;;;;17.25;8.05;;;;;;;-1.19;69.79;100653.88;5114324;28;20036;-75
2022/03/06 04:13:07;;;;;;;14.80;8.07;;;;;;;-1.25;69.86;100648.72;5113965;28;20046;-75
2022/03/06 04:15:35;;;;;;;14.00;7.93;;;;;;;-1.23;69.84;100648.69;5113917;28;20067;-75
2022/03/06 04:18:04;;;;;;;13.32;7.57;;;;;;;-1.23;70.18;100652.19;5113632;28;20130;-74
2022/03/06 04:20:33;;;;;;;15.50;7.70;;;;;;;-1.21;70.11;100655.66;5113752;28;20051;-74
2022/03/06 04:23:02;;;;;;;14.50;7.43;;;;;;;-1.32;70.64;100654.84;5113692;28;20040;-74
2022/03/06 04:25:30;;;;;;;16.90;8.23;;;;;;;-1.34;70.95;100651.38;5114351;28;20036;-76
2022/03/06 04:27:58;;;;;;;13.50;7.80;;;;;;;-1.39;71.03;100650.50;5113740;28;20047;-76
2022/03/06 04:30:27;;;;;;;13.90;7.63;;;;;;;-1.25;70.51;100647.84;5113681;28;20131;-75
2022/03/06 04:32:56;;;;;;;15.43;7.57;;;;;;;-1.26;70.48;100657.41;5113669;28;20054;-76
2022/03/06 04:35:25;;;;;;;15.35;7.68;;;;;;;-1.32;70.65;100659.22;5113586;28;20063;-75
2022/03/06 04:37:54;;;;;;;15.80;7.22;;;;;;;-1.20;69.80;100646.06;5113563;28;20043;-76
2022/03/06 04:40:23;;;;;;;13.82;7.43;;;;;;;-1.26;70.35;100646.06;5113499;28;20039;-77
2022/03/06 04:42:51;;;;;;;13.70;7.45;;;;;;;-1.42;70.77;100644.44;5113399;28;20035;-77
2022/03/06 04:45:19;;;;;;;13.50;7.78;;;;;;;-1.41;71.03;100652.28;5113721;28;20050;-75
2022/03/06 04:47:48;;;;;;;12.60;7.22;;;;;;;-1.34;70.67;100655.75;5113382;28;20434;-75
2022/03/06 04:50:16;;;;;;;11.02;5.68;;;;;;;-1.45;70.58;100656.66;5113705;28;20067;-74
2022/03/06 04:52:44;;;;;;;14.90;7.53;;;;;;;-1.34;70.81;100659.22;5113290;28;20051;-75
2022/03/06 04:55:14;;;;;;;13.95;7.28;;;;;;;-1.45;71.15;100661.00;5113312;28;20048;-74
2022/03/06 04:57:45;;;;;;;12.05;7.25;;;;;;;-1.33;70.58;100658.34;5113608;28;20039;-74
2022/03/06 05:00:15;;;;;;;14.88;7.90;;;;;;;-1.32;70.38;100659.22;5113705;28;20046;-75
2022/03/06 05:02:44;;;;;;;13.70;7.40;;;;;;;-1.40;70.48;100658.38;5113307;28;20089;-76
2022/03/06 05:05:12;;;;;;;14.43;8.15;;;;;;;-1.34;70.56;100659.22;5113245;28;20074;-73
2022/03/06 05:07:40;;;;;;;16.95;8.20;;;;;;;-1.39;70.37;100658.38;5113211;28;20126;-73
2022/03/06 05:10:10;;;;;;;12.75;7.93;;;;;;;-1.36;70.20;100666.19;5112964;28;20044;-75
2022/03/06 05:12:41;;;;;;;17.15;7.55;;;;;;;-1.27;70.21;100660.91;5116123;28;20370;-75
2022/03/06 05:15:12;;;;;;;15.88;8.00;;;;;;;-1.30;70.22;100660.94;5117685;28;20048;-75
2022/03/06 05:17:42;;;;;;;15.10;8.18;;;;;;;-1.36;70.57;100670.56;5117741;28;20040;-75
2022/03/06 05:20:12;;;;;;;15.40;8.23;;;;;;;-1.32;70.30;100672.31;5117515;28;20051;-77
2022/03/06 05:22:40;;;;;;;15.65;8.40;;;;;;;-1.35;70.77;100673.19;5117570;28;20538;-72
2022/03/06 05:25:10;;;;;;;14.55;7.90;;;;;;;-1.27;70.22;100671.38;5116938;28;20074;-72
2022/03/06 05:27:40;;;;;;;14.77;8.23;;;;;;;-1.24;70.42;100667.91;5117466;28;20044;-72
2022/03/06 05:30:10;;;;;;;17.50;8.27;;;;;;;-1.42;70.94;100666.25;5116839;28;20047;-72
2022/03/06 05:32:38;;;;;;;13.07;7.30;;;;;;;-1.30;70.52;100668.78;5117454;28;20451;-72
2022/03/06 05:35:08;;;;;;;15.57;7.95;;;;;;;-1.29;70.66;100667.91;5116981;28;20043;-72
2022/03/06 05:37:36;;;;;;;17.75;8.80;;;;;;;-1.22;70.52;100661.78;5117053;28;20075;-71
2022/03/06 05:40:06;;;;;;;16.92;8.20;;;;;;;-1.20;70.49;100673.09;5116509;28;20070;-73
2022/03/06 05:42:35;;;;;;;14.85;8.60;;;;;;;-1.26;70.36;100673.13;5117197;28;20404;-74
2022/03/06 05:45:05;;;;;;;15.73;8.35;;;;;;;-1.29;70.86;100673.13;5116582;28;20039;-76
2022/03/06 05:47:34;;;;;;;18.95;9.38;;;;;;;-1.37;71.10;100674.94;5117222;28;20051;-76
2022/03/06 05:50:02;;;;;;;15.65;8.27;;;;;;;-1.16;70.52;100674.84;5116491;28;20438;-76
2022/03/06 05:52:31;;;;;;;14.80;8.60;;;;;;;-1.08;69.90;100672.16;5117104;28;20057;-75
2022/03/06 05:55:00;;;;;;;16.77;8.57;;;;;;;-1.09;69.53;100670.41;5116367;28;20046;-76
2022/03/06 05:57:28;;;;;;;17.05;8.88;;;;;;;-0.95;69.02;100672.97;5116892;28;20097;-76
2022/03/06 05:59:56;;;;;;;16.50;9.15;;;;;;;-0.84;68.03;100679.00;5116580;28;20126;-76
2022/03/06 06:02:26;;;;;;;13.40;8.48;;;;;;;-0.78;67.41;100675.44;5116511;28;20039;-75
2022/03/06 06:04:54;;;;;;;17.02;8.98;;;;;;;-0.70;67.17;100677.13;5116659;28;20036;-72
2022/03/06 06:07:25;;;;;;;18.13;8.57;;;;;;;-0.62;66.37;100672.69;5116720;28;20048;-72
2022/03/06 06:09:53;;;;;;;15.45;8.30;;;;;;;-0.58;66.66;100673.53;5116167;28;20051;-70
2022/03/06 06:12:21;;;;;;;15.02;8.68;;;;;;;-0.61;66.44;100669.19;5116647;28;20542;-71
2022/03/06 06:14:50;;;;;;;15.60;8.68;;;;;;;-0.57;65.73;100672.69;5116018;28;20369;-76
2022/03/06 06:17:18;;;;;;;16.30;8.65;;;;;;;-0.49;65.50;100662.09;5116537;28;20036;-74
2022/03/06 06:19:48;;;;;;;15.70;8.95;;;;;;;-0.47;65.06;100661.25;5115956;28;20051;-74
2022/03/06 06:22:17;;;;;;;15.57;8.48;;;;;;;-0.39;64.08;100663.75;5115861;28;20040;-74
2022/03/06 06:24:45;;;;;;;16.25;8.48;;;;;;;-0.34;64.32;100664.59;5116522;28;20054;-75
2022/03/06 06:27:13;;;;;;;16.02;8.10;;;;;;;-0.26;63.68;100665.41;5116067;28;20039;-74
2022/03/06 06:29:41;;;;;;;15.60;8.20;;;;;;;-0.20;63.24;100664.47;5116070;28;20076;-75
2022/03/06 06:32:09;;;;;;;14.07;7.95;;;;;;;-0.18;63.35;100647.84;5115914;28;20150;-75
2022/03/06 06:34:38;;;;;;;16.65;9.45;;;;;;;-0.05;62.34;100656.47;5097861;28;20055;-75
2022/03/06 06:37:10;;;;;;;14.27;8.23;;;;;;;-0.04;62.59;100653.81;5115845;28;20074;-74
2022/03/06 06:39:38;;;;;;;14.10;8.05;;;;;;;0.04;62.67;100653.75;5116229;28;20451;-75
2022/03/06 06:42:07;;;;;;;14.82;8.50;;;;;;;-0.05;62.57;100648.59;5115703;28;20404;-75
2022/03/06 06:44:36;;;;;;;14.55;8.48;;;;;;;0.03;62.59;100648.50;5115931;28;20046;-75
2022/03/06 06:47:05;;;;;;;15.68;8.55;;;;;;;0.13;62.40;100658.03;5115664;28;20392;-76
2022/03/06 06:49:34;;;;;;;15.93;9.10;;;;;;;0.17;62.33;100652.69;5115961;28;20044;-77
2022/03/06 06:52:02;;;;;;;16.80;8.27;;;;;;;0.23;62.06;100662.28;5115580;28;20031;-78
2022/03/06 06:54:32;;;;;;;15.10;7.82;;;;;;;0.39;61.39;100655.97;5115556;28;20043;-78
2022/03/06 06:57:00;;;;;;;14.25;8.25;;;;;;;0.34;61.25;100659.53;5115405;28;20049;-75
2022/03/06 06:59:28;;;;;;;14.75;7.90;;;;;;;0.42;61.47;100661.16;5115851;28;20433;-75
2022/03/06 07:01:57;;;;;;;14.45;8.10;;;;;;;0.29;61.48;100662.22;5115310;28;20071;-74
2022/03/06 07:04:25;;;;;;;15.07;8.75;;;;;;;0.42;61.08;100660.31;5115184;28;20047;-72
2022/03/06 07:06:53;;;;;;;17.33;8.52;;;;;;;0.36;60.87;100661.22;5115381;28;20051;-73
2022/03/06 07:09:21;;;;;;;14.90;7.93;;;;;;;0.39;61.24;100671.72;5115602;28;20046;-74
2022/03/06 07:11:51;;;;;;;16.08;8.13;;;;;;;0.43;61.10;100662.91;5115106;28;20116;-74
2022/03/06 07:14:19;;;;;;;14.10;7.88;;;;;;;0.52;60.38;100667.16;5115092;28;20086;-74
2022/03/06 07:16:48;;;;;;;15.55;8.63;;;;;;;0.61;60.65;100666.19;5115322;28;20043;-72
2022/03/06 07:19:17;;;;;;;14.02;7.50;;;;;;;0.73;60.45;100671.28;5114928;28;20427;-77
2022/03/06 07:21:46;;;;;;;12.35;7.43;;;;;;;0.73;59.94;100668.66;5115404;28;20109;-72
2022/03/06 07:24:14;;;;;;;19.80;8.40;;;;;;;0.80;59.90;100663.28;5114837;28;20118;-73
2022/03/06 07:26:42;;;;;;;14.68;7.82;;;;;;;0.88;60.20;100662.31;5115228;28;20050;-74
2022/03/06 07:29:12;;;;;;;11.98;7.15;;;;;;;0.96;59.93;100660.44;5114714;28;20039;-74
2022/03/06 07:31:40;;;;;;;13.13;7.57;;;;;;;1.01;59.33;100662.13;5115013;28;20468;-72
2022/03/06 07:34:09;;;;;;;13.73;7.07;;;;;;;1.06;59.25;100662.03;5113706;28;20511;-72
2022/03/06 07:36:39;;;;;;;13.65;7.18;;;;;;;1.15;59.11;100669.78;5115638;28;20040;-73
2022/03/06 07:39:08;;;;;;;12.77;6.78;;;;;;;1.17;58.96;100659.28;5096206;28;20055;-74
2022/03/06 07:41:36;;;;;;;10.93;6.35;;;;;;;1.29;58.92;100661.69;5114622;28;20043;-75
2022/03/06 07:44:04;;;;;;;12.43;6.80;;;;;;;1.56;57.75;100660.41;5114252;28;20035;-77
2022/03/06 07:46:34;;;;;;;11.25;6.55;;;;;;;1.63;57.07;100665.50;5114512;28;20048;-77
2022/03/06 07:49:03;;;;;;;10.60;5.72;;;;;;;1.68;57.05;100655.78;5114580;28;20112;-70
2022/03/06 07:51:31;;;;;;;12.25;5.95;;;;;;;1.67;56.81;100661.06;5114457;28;20054;-71
2022/03/06 07:54:00;;;;;;;12.15;6.22;;;;;;;1.76;56.43;100654.78;5119399;28;20547;-72
2022/03/06 07:56:29;;;;;;;10.55;5.32;;;;;;;1.72;56.03;100646.94;5097182;28;20062;-77
2022/03/06 07:58:57;;;;;;;11.70;6.07;;;;;;;1.89;55.64;100658.91;5114395;28;20043;-76
2022/03/06 08:01:25;;;;;;;11.02;5.32;;;;;;;1.96;55.41;100650.03;5114440;28;20044;-74
2022/03/06 08:03:55;;;;;;;11.00;6.15;;;;;;;1.97;55.40;100646.50;5114352;28;20089;-73
2022/03/06 08:06:23;;;;;;;10.57;5.70;;;;;;;2.05;55.00;100649.00;5114989;28;20047;-75
2022/03/06 08:08:52;;;;;;;8.70;5.30;;;;;;;2.21;54.33;100658.31;5114394;28;20469;-75
2022/03/06 08:11:20;;;;;;;9.50;5.40;;;;;;;2.34;54.15;100651.06;5114032;28;20044;-73
2022/03/06 08:13:48;;;;;;;10.43;5.90;;;;;;;2.42;53.80;100651.78;5095578;28;20052;-70
2022/03/06 08:16:16;;;;;;;10.60;5.43;;;;;;;2.42;53.90;100646.50;5095319;28;20096;-71
2022/03/06 08:18:45;;;;;;;10.10;5.82;;;;;;;2.42;53.84;100650.00;5113923;28;20127;-70
2022/03/06 08:21:15;;;;;;;9.73;5.88;;;;;;;2.56;53.41;100642.66;5113871;28;20058;-71
2022/03/06 08:23:43;;;;;;;12.05;5.68;;;;;;;2.58;53.49;100640.00;5114033;28;20035;-70
2022/03/06 08:26:11;;;;;;;12.25;5.88;;;;;;;2.63;52.43;100638.16;5113733;28;20130;-70
2022/03/06 08:28:39;;;;;;;9.60;5.20;;;;;;;2.59;51.89;100632.06;5095765;28;20134;-70
2022/03/06 08:31:08;;;;;;;9.50;4.85;;;;;;;2.72;52.06;100629.19;5113692;28;20629;-71
2022/03/06 08:33:36;;;;;;;10.93;5.53;;;;;;;2.65;52.58;100615.28;5095886;28;20067;-71
2022/03/06 08:36:05;;;;;;;10.68;5.70;;;;;;;2.78;52.46;100622.00;5113560;28;20043;-71
2022/03/06 08:38:35;;;;;;;13.02;6.10;;;;;;;2.86;52.37;100625.31;5113807;28;20438;-70
2022/03/06 08:41:03;;;;;;;11.85;5.75;;;;;;;2.78;52.25;100614.09;5113243;28;20065;-71
2022/03/06 08:43:31;;;;;;;11.60;6.25;;;;;;;2.95;51.99;100623.38;5113513;28;20044;-72
2022/03/06 08:46:00;;;;;;;12.15;5.88;;;;;;;2.99;52.13;100617.13;5113177;28;20036;-71
2022/03/06 08:48:28;;;;;;;11.45;5.90;;;;;;;2.97;51.08;100619.81;5113377;28;20039;-70
2022/03/06 08:50:58;;;;;;;10.23;5.20;;;;;;;3.00;51.06;100621.53;5113540;28;20035;-70
2022/03/06 08:53:26;;;;;;;12.13;5.30;;;;;;;3.07;50.44;100613.41;5113116;28;20168;-70
2022/03/06 08:55:56;;;;;;;9.98;5.20;;;;;;;3.27;49.82;100630.53;5113728;28;20039;-72
2022/03/06 08:58:24;;;;;;;12.75;5.82;;;;;;;3.23;49.46;100623.59;5113142;28;20047;-67
2022/03/06 09:00:52;;;;;;;9.23;5.47;;;;;;;3.26;49.39;100627.03;5113618;28;20039;-68
2022/03/06 09:03:21;;;;;;;10.55;5.88;;;;;;;3.34;48.56;100627.69;5113212;28;20122;-68
2022/03/06 09:05:50;;;;;;;10.48;5.30;;;;;;;3.43;49.36;100616.06;5113580;28;20075;-68
2022/03/06 09:08:18;;;;;;;10.95;5.57;;;;;;;3.51;49.29;100614.09;5108598;28;20509;-71
2022/03/06 09:10:47;;;;;;;10.70;5.10;;;;;;;3.51;48.04;100607.97;5087164;28;20076;-75
2022/03/06 09:13:16;;;;;;;9.77;5.03;;;;;;;3.42;48.40;100612.56;5091889;28;20570;-72
2022/03/06 09:15:45;;;;;;;10.38;5.40;;;;;;;3.46;48.79;100615.97;5091426;28;20040;-72
2022/03/06 09:18:13;;;;;;;9.40;5.75;;;;;;;3.56;47.74;100608.69;5091712;28;20043;-77
2022/03/06 09:20:42;;;;;;;9.70;5.25;;;;;;;3.69;47.47;100607.50;5091420;28;20138;-73
2022/03/06 09:23:10;;;;;;;9.55;4.75;;;;;;;3.72;46.66;100612.69;5091916;28;20075;-72
2022/03/06 09:25:39;;;;;;;8.40;4.50;;;;;;;3.76;46.57;100608.19;5108711;28;20094;-75
2022/03/06 09:28:07;;;;;;;8.85;4.60;;;;;;;3.60;46.90;100599.81;5110568;28;20051;-74
2022/03/06 09:30:37;;;;;;;9.18;4.55;;;;;;;3.65;46.69;100608.47;5111756;28;20509;-73
2022/03/06 09:33:06;;;;;;;8.15;4.43;;;;;;;3.87;46.63;100596.44;5111775;28;20116;-72
2022/03/06 09:35:35;;;;;;;8.48;4.50;;;;;;;4.06;46.44;100609.16;5111667;28;20035;-72
2022/03/06 09:38:03;;;;;;;9.52;4.50;;;;;;;3.99;45.80;100606.66;5111721;28;20051;-72
2022/03/06 09:40:31;;;;;;;8.68;4.82;;;;;;;3.90;45.38;100588.44;5112764;28;20045;-68
2022/03/06 09:43:00;;;;;;;10.13;5.05;;;;;;;3.85;45.80;100592.97;5113828;28;20464;-70
2022/03/06 09:45:33;;;;;;;7.75;4.07;;;;;;;3.90;45.92;100595.50;5111603;28;20554;-76
2022/03/06 09:48:04;;;;;;;9.60;4.60;;;;;;;4.07;45.25;100587.13;5111620;28;20454;-73
2022/03/06 09:50:33;;;;;;;9.48;5.15;;;;;;;3.97;45.07;100590.00;5112075;28;20047;-76
2022/03/06 09:53:02;;;;;;;9.18;4.63;;;;;;;3.98;45.21;100583.81;5112017;28;20040;-78
2022/03/06 09:55:31;;;;;;;8.40;4.82;;;;;;;4.14;45.50;100578.94;5111466;28;20059;-74
2022/03/06 09:58:00;;;;;;;8.48;4.70;;;;;;;4.07;45.43;100582.69;5112387;28;20043;-73
2022/03/06 10:00:34;;;;;;;8.32;4.22;;;;;;;4.14;45.25;100588.66;5097202;28;20108;-75
2022/03/06 10:03:05;;;;;;;10.77;5.20;;;;;;;4.21;44.89;100577.00;5115410;28;20046;-74
2022/03/06 10:05:37;;;;;;;7.00;4.07;;;;;;;4.11;45.22;100570.25;5114510;28;20081;-73
2022/03/06 10:08:20;;;;;;;7.70;4.70;;;;;;;4.17;45.32;100575.38;5114919;28;20144;-74
2022/03/06 10:10:50;;;;;;;7.97;4.50;;;;;;;4.27;44.67;100583.00;5115269;28;20048;-68
2022/03/06 10:13:28;;;;;;;9.98;5.15;;;;;;;4.32;44.61;100573.13;5115095;28;20094;-70
2022/03/06 10:16:09;;;;;;;9.30;4.90;;;;;;;4.41;44.46;100574.66;5115357;28;20051;-70
2022/03/06 10:18:41;;;;;;;7.97;4.63;;;;;;;4.48;44.13;100578.84;5115512;28;20050;-76
2022/03/06 10:21:19;;;;;;;8.93;5.03;;;;;;;4.53;44.17;100574.28;5114698;28;20060;-72
2022/03/06 10:23:49;;;;;;;7.57;4.85;;;;;;;4.57;44.18;100581.22;5114953;28;20279;-76
2022/03/06 10:26:20;;;;;;;9.85;5.13;;;;;;;4.54;44.01;100583.09;5114849;28;20130;-73
2022/03/06 10:28:53;;;;;;;9.30;5.10;;;;;;;4.43;44.81;100580.75;5114865;28;20051;-76
2022/03/06 10:31:23;;;;;;;10.50;5.47;;;;;;;4.60;44.37;100564.38;5115308;28;20054;-73
2022/03/06 10:33:58;;;;;;;11.48;5.07;;;;;;;4.82;44.15;100557.50;5114531;28;20044;-72
2022/03/06 10:36:36;;;;;;;9.65;4.50;;;;;;;5.00;43.59;100561.34;5114465;28;20047;-70
2022/03/06 10:39:17;;;;;;;8.90;4.80;;;;;;;4.98;43.52;100557.91;5114654;28;20535;-68
2022/03/06 10:41:48;;;;;;;7.45;4.75;;;;;;;4.92;43.19;100568.66;5114709;28;20043;-71
2022/03/06 10:44:18;;;;;;;9.68;4.68;;;;;;;4.91;43.28;100553.72;5115025;28;20444;-69
2022/03/06 10:46:59;;;;;;;9.05;5.28;;;;;;;4.81;43.25;100547.84;5114688;28;20043;-71
2022/03/06 10:49:30;;;;;;;10.40;5.20;;;;;;;4.83;43.73;100545.19;5114900;28;20048;-71
2022/03/06 10:52:13;;;;;;;8.60;5.13;;;;;;;4.66;43.70;100535.16;5114657;28;20067;-69
2022/03/06 10:54:52;;;;;;;8.40;4.90;;;;;;;4.88;43.59;100535.31;5114810;28;20141;-73
2022/03/06 10:57:22;;;;;;;8.98;5.18;;;;;;;4.97;43.52;100534.16;5114522;28;20056;-71
2022/03/06 10:59:52;;;;;;;10.02;5.60;;;;;;;4.91;43.21;100534.34;5114485;28;20476;-72
2022/03/06 11:02:24;;;;;;;10.98;5.32;;;;;;;5.01;43.27;100526.06;5114227;28;20066;-74
2022/03/06 11:04:58;;;;;;;10.38;5.72;;;;;;;4.99;43.13;100521.75;5114306;28;20036;-69
2022/03/06 11:07:29;;;;;;;10.50;5.72;;;;;;;4.87;43.36;100520.38;5114040;28;20431;-71
2022/03/06 11:09:59;;;;;;;9.88;5.60;;;;;;;5.01;43.14;100510.19;5096253;28;20040;-70
2022/03/06 11:12:30;;;;;;;9.10;5.03;;;;;;;5.02;42.72;100511.97;5114907;28;20043;-71
2022/03/06 11:14:59;;;;;;;12.52;5.88;;;;;;;5.21;42.63;100495.44;5116041;28;20044;-76
2022/03/06 11:17:34;;;;;;;11.48;5.90;;;;;;;5.06;42.62;100497.72;5114712;28;20048;-68
2022/03/06 11:20:07;;;;;;;9.55;5.72;;;;;;;5.09;42.66;100486.16;5113602;28;20055;-69
2022/03/06 11:22:43;;;;;;;10.90;5.90;;;;;;;5.07;42.41;100480.94;5114333;28;20046;-69
2022/03/06 11:25:18;;;;;;;8.82;5.20;;;;;;;5.03;43.08;100483.75;5114096;28;20051;-69
2022/03/06 11:27:59;;;;;;;9.20;5.15;;;;;;;5.22;42.69;100483.97;5113824;28;20100;-68
2022/03/06 11:30:29;;;;;;;9.73;5.45;;;;;;;5.32;42.76;100490.69;5114061;28;20042;-68
2022/03/06 11:33:05;;;;;;;10.95;5.60;;;;;;;5.31;42.22;100481.88;5114171;28;20048;-68